createdAt,value
2022-08-16T00:01:29.036Z,20.10
2022-08-16T00:04:05.533Z,20.90
2022-08-16T00:06:58.979Z,21.60
2022-08-16T00:09:35.813Z,28.60
2022-08-16T00:12:05.195Z,20.97
2022-08-16T00:14:35.348Z,20.57
2022-08-16T00:17:24.571Z,21.20
2022-08-16T00:19:55.063Z,21.30
2022-08-16T00:22:27.892Z,20.70
2022-08-16T00:24:57.433Z,20.70
2022-08-16T00:27:43.039Z,21.63
2022-08-16T00:30:28.571Z,21.57
2022-08-16T00:33:21.308Z,21.00
2022-08-16T00:36:00.276Z,20.97
2022-08-16T00:38:41.111Z,21.70
2022-08-16T00:41:12.645Z,20.60
2022-08-16T00:43:47.230Z,20.40
2022-08-16T00:46:34.941Z,22.13
2022-08-16T00:49:17.438Z,21.57
2022-08-16T00:51:54.797Z,21.07
2022-08-16T00:54:32.951Z,21.43
2022-08-16T00:57:03.245Z,22.50
2022-08-16T00:59:54.887Z,22.00
2022-08-16T01:02:33.116Z,21.60
2022-08-16T01:05:25.115Z,22.40
2022-08-16T01:07:54.628Z,21.63
2022-08-16T01:10:36.234Z,21.37
2022-08-16T01:13:23.691Z,20.80
2022-08-16T01:16:02.948Z,21.77
2022-08-16T01:18:44.261Z,21.73
2022-08-16T01:21:33.364Z,23.13
2022-08-16T01:24:52.467Z,22.07
2022-08-16T01:27:34.469Z,23.30
2022-08-16T01:30:20.365Z,23.23
2022-08-16T01:33:16.395Z,22.90
2022-08-16T01:36:01.654Z,22.30
2022-08-16T01:39:11.756Z,22.30
2022-08-16T01:41:49.737Z,22.47
2022-08-16T01:44:27.130Z,22.73
2022-08-16T01:47:07.363Z,21.60
2022-08-16T01:50:42.898Z,23.00
2022-08-16T01:52:47.463Z,22.63
2022-08-16T01:55:35.789Z,22.13
2022-08-16T01:58:12.689Z,22.10
2022-08-16T02:01:13.868Z,22.90
2022-08-16T02:03:52.204Z,23.23
2022-08-16T02:06:33.555Z,22.50
2022-08-16T02:09:25.692Z,23.20
2022-08-16T02:12:40.143Z,23.50
2022-08-16T02:15:25.186Z,24.73
2022-08-16T02:18:12.553Z,24.40
2022-08-16T02:20:53.528Z,23.77
2022-08-16T02:23:30.135Z,23.50
2022-08-16T02:26:00.039Z,24.63
2022-08-16T02:28:30.110Z,23.53
2022-08-16T02:31:11.337Z,23.73
2022-08-16T02:33:50.255Z,23.90
2022-08-16T02:36:48.087Z,24.07
2022-08-16T02:39:37.037Z,28.57
2022-08-16T02:42:06.130Z,24.40
2022-08-16T02:44:36.558Z,24.57
2022-08-16T02:47:25.238Z,23.43
2022-08-16T02:50:55.158Z,24.73
2022-08-16T02:53:06.970Z,24.00
2022-08-16T02:55:42.732Z,24.23
2022-08-16T02:58:11.778Z,24.33
2022-08-16T03:00:50.383Z,25.07
2022-08-16T03:04:41.394Z,24.83
2022-08-16T03:06:42.373Z,25.03
2022-08-16T03:09:38.306Z,24.50
2022-08-16T03:12:07.910Z,24.60
2022-08-16T03:14:37.666Z,25.23
2022-08-16T03:17:06.601Z,25.37
2022-08-16T03:19:59.396Z,25.77
2022-08-16T03:22:34.050Z,25.33
2022-08-16T03:25:07.389Z,25.37
2022-08-16T03:27:41.195Z,25.53
2022-08-16T03:30:30.136Z,24.97
2022-08-16T03:33:07.450Z,25.30
2022-08-16T03:35:46.444Z,24.90
2022-08-16T03:38:32.956Z,26.20
2022-08-16T03:41:25.654Z,26.80
2022-08-16T03:44:09.049Z,27.60
2022-08-16T03:46:50.036Z,28.10
2022-08-16T03:49:20.506Z,26.70
2022-08-16T03:51:52.746Z,27.93
2022-08-16T03:54:22.327Z,28.43
2022-08-16T03:56:58.051Z,27.20
2022-08-16T03:59:31.511Z,29.13
2022-08-16T04:02:05.060Z,27.57
2022-08-16T04:04:46.995Z,29.13
2022-08-16T04:07:17.423Z,28.23
2022-08-16T04:10:39.167Z,27.77
2022-08-16T04:14:08.574Z,26.03
2022-08-16T04:17:38.396Z,27.07
2022-08-16T04:20:31.669Z,26.37
2022-08-16T04:23:16.947Z,26.33
2022-08-16T04:25:47.080Z,26.00
2022-08-16T04:28:54.686Z,25.80
2022-08-16T04:31:14.815Z,26.10
2022-08-16T04:33:53.849Z,25.40
2022-08-16T04:36:28.701Z,23.90
2022-08-16T04:39:02.998Z,25.33
2022-08-16T04:41:57.749Z,24.70
2022-08-16T04:44:54.097Z,25.93
2022-08-16T04:47:33.221Z,26.40
2022-08-16T04:50:14.519Z,26.03
2022-08-16T04:52:45.846Z,26.90
2022-08-16T04:55:31.698Z,27.57
2022-08-16T04:58:44.976Z,27.30
2022-08-16T05:01:57.785Z,26.80
2022-08-16T05:04:30.109Z,26.93
2022-08-16T05:07:08.424Z,28.13
2022-08-16T05:09:49.401Z,27.67
2022-08-16T05:12:46.421Z,28.80
2022-08-16T05:15:25.814Z,28.60
2022-08-16T05:17:59.598Z,28.47
2022-08-16T05:20:39.628Z,27.57
2022-08-16T05:23:23.093Z,27.23
2022-08-16T05:25:51.995Z,28.33
2022-08-16T05:28:31.046Z,28.10
2022-08-16T05:31:09.999Z,27.30
2022-08-16T05:33:42.332Z,26.93
2022-08-16T05:36:26.663Z,27.87
2022-08-16T05:39:17.723Z,27.20
2022-08-16T05:41:52.306Z,26.47
2022-08-16T05:44:28.130Z,27.00
2022-08-16T05:47:03.541Z,28.93
2022-08-16T05:49:50.637Z,26.17
2022-08-16T05:52:21.789Z,27.47
2022-08-16T05:55:40.461Z,25.67
2022-08-16T05:58:31.775Z,40.90
2022-08-16T06:01:01.879Z,26.20
2022-08-16T06:03:41.484Z,24.10
2022-08-16T06:06:27.875Z,23.10
2022-08-16T06:09:02.015Z,23.00
2022-08-16T06:11:32.502Z,24.33
2022-08-16T06:14:08.178Z,23.10
2022-08-16T06:16:37.585Z,21.00
2022-08-16T06:19:08.501Z,22.80
2022-08-16T06:21:43.655Z,21.10
2022-08-16T06:24:53.979Z,21.07
2022-08-16T06:27:01.457Z,21.43
2022-08-16T06:29:31.276Z,20.57
2022-08-16T06:32:28.091Z,20.73
2022-08-16T06:35:02.602Z,20.03
2022-08-16T06:37:51.300Z,21.73
2022-08-16T06:40:22.145Z,20.70
2022-08-16T06:43:07.006Z,19.73
2022-08-16T06:45:43.222Z,20.90
2022-08-16T06:48:14.431Z,20.27
2022-08-16T06:50:50.297Z,19.70
2022-08-16T06:53:23.006Z,20.90
2022-08-16T06:55:59.603Z,20.43
2022-08-16T06:58:31.635Z,21.63
2022-08-16T07:01:14.633Z,21.43
2022-08-16T07:03:55.255Z,21.20
2022-08-16T07:06:27.419Z,19.40
2022-08-16T07:08:58.202Z,19.80
2022-08-16T07:11:45.747Z,19.80
2022-08-16T07:14:24.610Z,19.20
2022-08-16T07:17:01.268Z,20.57
2022-08-16T07:20:01.661Z,19.97
2022-08-16T07:22:37.472Z,19.50
2022-08-16T07:25:12.313Z,19.73
2022-08-16T07:27:43.906Z,20.67
2022-08-16T07:30:39.219Z,20.33
2022-08-16T07:33:15.952Z,19.80
2022-08-16T07:35:55.221Z,20.90
2022-08-16T07:38:34.195Z,19.80
2022-08-16T07:41:11.739Z,21.40
2022-08-16T07:43:43.275Z,20.80
2022-08-16T07:46:37.812Z,21.67
2022-08-16T07:49:26.153Z,22.63
2022-08-16T07:52:02.305Z,21.50
2022-08-16T07:55:14.108Z,20.13
2022-08-16T07:58:00.821Z,21.23
2022-08-16T08:00:53.700Z,22.30
2022-08-16T08:03:39.278Z,21.37
2022-08-16T08:06:10.423Z,22.83
2022-08-16T08:09:09.775Z,21.83
2022-08-16T08:11:41.611Z,21.20
2022-08-16T08:14:33.309Z,22.73
2022-08-16T08:17:08.669Z,22.03
2022-08-16T08:19:40.249Z,22.30
2022-08-16T08:22:09.878Z,23.60
2022-08-16T08:25:05.143Z,21.93
2022-08-16T08:27:57.550Z,20.87
2022-08-16T08:30:51.103Z,20.10
2022-08-16T08:33:16.058Z,19.57
2022-08-16T08:35:54.438Z,34.53
2022-08-16T08:38:46.023Z,19.67
2022-08-16T08:41:33.206Z,20.70
2022-08-16T08:44:29.025Z,20.97
2022-08-16T08:47:01.746Z,21.53
2022-08-16T08:49:46.164Z,21.77
2022-08-16T08:52:34.536Z,20.07
2022-08-16T08:55:10.975Z,21.00
2022-08-16T08:57:48.521Z,20.40
2022-08-16T09:00:51.430Z,21.53
2022-08-16T09:03:27.992Z,20.00
2022-08-16T09:05:58.822Z,20.60
2022-08-16T09:08:31.487Z,21.33
2022-08-16T09:11:03.641Z,21.53
2022-08-16T09:13:36.409Z,20.87
2022-08-16T09:16:06.988Z,20.10
2022-08-16T09:18:39.044Z,20.67
2022-08-16T09:21:09.386Z,21.00
2022-08-16T09:23:40.775Z,21.00
2022-08-16T09:26:44.433Z,20.77
2022-08-16T09:29:14.930Z,38.37
2022-08-16T09:31:47.343Z,21.53
2022-08-16T09:34:23.227Z,19.50
2022-08-16T09:36:53.903Z,20.30
2022-08-16T09:39:23.198Z,21.50
2022-08-16T09:41:54.221Z,20.40
2022-08-16T09:45:10.748Z,20.47
2022-08-16T09:47:16.483Z,20.93
2022-08-16T09:49:51.989Z,20.67
2022-08-16T09:52:22.283Z,20.20
2022-08-16T09:54:51.831Z,20.60
2022-08-16T09:57:21.246Z,19.97
2022-08-16T09:59:56.088Z,20.17
2022-08-16T10:02:27.993Z,20.40
2022-08-16T10:04:59.067Z,20.43
2022-08-16T10:07:44.145Z,21.00
2022-08-16T10:10:19.100Z,20.97
2022-08-16T10:13:14.479Z,20.63
2022-08-16T10:15:55.657Z,20.70
2022-08-16T10:18:54.099Z,20.80
2022-08-16T10:21:17.330Z,20.27
2022-08-16T10:23:48.702Z,20.53
2022-08-16T10:27:18.897Z,20.30
2022-08-16T10:29:07.335Z,22.03
2022-08-16T10:31:44.171Z,20.73
2022-08-16T10:34:31.681Z,21.70
2022-08-16T10:37:02.054Z,19.30
2022-08-16T10:39:40.681Z,20.70
2022-08-16T10:42:13.302Z,20.00
2022-08-16T10:44:53.852Z,20.67
2022-08-16T10:47:24.254Z,20.60
2022-08-16T10:49:55.918Z,20.10
2022-08-16T10:52:24.783Z,19.93
2022-08-16T10:55:37.452Z,19.33
2022-08-16T10:57:42.680Z,19.10
2022-08-16T11:00:21.031Z,19.50
2022-08-16T11:02:59.932Z,19.60
2022-08-16T11:08:23.581Z,19.67
2022-08-16T11:11:19.102Z,19.33
2022-08-16T11:13:59.235Z,20.07
2022-08-16T11:19:22.736Z,19.10
2022-08-16T11:22:22.537Z,19.80
2022-08-16T11:25:17.482Z,21.07
2022-08-16T11:28:03.266Z,19.20
2022-08-16T11:30:39.572Z,19.07
2022-08-16T11:33:11.072Z,20.07
2022-08-16T11:38:55.744Z,19.43
2022-08-16T11:41:43.655Z,18.53
2022-08-16T11:44:13.680Z,19.93
2022-08-16T11:46:57.968Z,19.50
2022-08-16T11:49:58.904Z,19.57
2022-08-16T11:52:46.594Z,20.20
2022-08-16T11:55:26.034Z,20.00
2022-08-16T11:58:06.696Z,20.47
2022-08-16T12:00:51.860Z,21.00
2022-08-16T12:03:34.268Z,20.50
2022-08-16T12:06:25.391Z,20.73
2022-08-16T12:09:05.294Z,22.30
2022-08-16T12:11:36.840Z,19.37
2022-08-16T12:14:08.652Z,19.80
2022-08-16T12:16:37.389Z,19.63
2022-08-16T12:19:13.857Z,19.17
2022-08-16T12:22:19.107Z,19.43
2022-08-16T12:24:53.434Z,19.97
2022-08-16T12:27:26.390Z,19.50
2022-08-16T12:30:21.555Z,19.73
2022-08-16T12:33:10.713Z,20.43
2022-08-16T12:35:42.972Z,19.77
2022-08-16T12:38:41.425Z,20.40
2022-08-16T12:41:11.044Z,20.50
2022-08-16T12:43:45.264Z,19.87
2022-08-16T12:46:14.882Z,20.43
2022-08-16T12:48:59.054Z,18.93
2022-08-16T12:51:57.706Z,19.27
2022-08-16T12:54:21.007Z,20.43
2022-08-16T12:56:52.123Z,19.33
2022-08-16T12:59:23.547Z,19.10
2022-08-16T13:01:55.452Z,18.97
2022-08-16T13:04:33.329Z,18.70
2022-08-16T13:09:47.959Z,20.10
2022-08-16T13:12:26.915Z,19.60
2022-08-16T13:14:57.779Z,21.00
2022-08-16T13:17:32.552Z,19.80
2022-08-16T13:20:22.621Z,19.93
2022-08-16T13:23:48.426Z,19.93
2022-08-16T13:26:22.799Z,19.43
2022-08-16T13:28:59.739Z,19.47
2022-08-16T13:31:39.407Z,19.17
2022-08-16T13:34:26.217Z,19.73
2022-08-16T13:36:59.212Z,20.07
2022-08-16T13:39:32.029Z,20.87
2022-08-16T13:42:12.170Z,19.50
2022-08-16T13:44:56.167Z,20.20
2022-08-16T13:47:35.402Z,19.00
2022-08-16T13:50:13.684Z,19.20
2022-08-16T13:52:44.606Z,19.00
2022-08-16T13:55:21.661Z,19.27
2022-08-16T13:58:26.766Z,18.73
2022-08-16T14:00:46.009Z,19.23
2022-08-16T14:03:21.217Z,19.17
2022-08-16T14:05:52.909Z,20.27
2022-08-16T14:08:27.313Z,19.73
2022-08-16T14:10:59.135Z,19.50
2022-08-16T14:13:32.954Z,20.00
2022-08-16T14:16:23.716Z,19.73
2022-08-16T14:18:55.002Z,19.33
2022-08-16T14:21:24.471Z,19.93
2022-08-16T14:23:53.196Z,18.40
2022-08-16T14:26:25.014Z,18.80
2022-08-16T14:29:06.250Z,18.90
2022-08-16T14:31:39.761Z,19.30
2022-08-16T14:34:25.784Z,19.37
2022-08-16T14:36:59.528Z,18.70
2022-08-16T14:39:30.913Z,19.07
2022-08-16T14:42:10.697Z,18.40
2022-08-16T14:44:57.555Z,19.00
2022-08-16T14:47:59.104Z,18.63
2022-08-16T14:50:31.045Z,25.33
2022-08-16T14:53:14.046Z,24.63
2022-08-16T14:55:46.274Z,17.90
2022-08-16T14:58:38.721Z,18.60
2022-08-16T15:01:10.230Z,19.70
2022-08-16T15:03:44.606Z,19.07
2022-08-16T15:06:16.424Z,18.10
2022-08-16T15:08:45.854Z,18.43
2022-08-16T15:11:14.593Z,18.70
2022-08-16T15:13:43.416Z,19.17
2022-08-16T15:16:12.235Z,19.33
2022-08-16T15:18:46.458Z,43.13
2022-08-16T15:21:18.748Z,19.50
2022-08-16T15:23:47.119Z,18.10
2022-08-16T15:26:34.765Z,19.43
2022-08-16T15:29:08.432Z,18.37
2022-08-16T15:31:41.523Z,18.90
2022-08-16T15:34:13.010Z,18.50
2022-08-16T15:36:48.793Z,18.40
2022-08-16T15:39:29.797Z,17.50
2022-08-16T15:42:11.034Z,18.20
2022-08-16T15:44:45.094Z,18.40
2022-08-16T15:47:21.769Z,18.53
2022-08-16T15:49:55.634Z,18.90
2022-08-16T15:52:30.122Z,19.17
2022-08-16T15:55:00.411Z,18.67
2022-08-16T15:57:46.766Z,19.40
2022-08-16T16:00:20.765Z,19.13
2022-08-16T16:03:01.404Z,19.07
2022-08-16T16:05:31.459Z,18.60
2022-08-16T16:08:11.644Z,19.80
2022-08-16T16:10:43.322Z,18.10
2022-08-16T16:13:13.115Z,18.67
2022-08-16T16:15:50.622Z,19.00
2022-08-16T16:18:38.341Z,19.00
2022-08-16T16:21:12.143Z,18.70
2022-08-16T16:23:59.008Z,24.17
2022-08-16T16:26:39.346Z,25.33
2022-08-16T16:29:16.460Z,32.30
2022-08-16T16:32:06.696Z,22.90
2022-08-16T16:34:52.935Z,21.53
2022-08-16T16:37:28.320Z,18.77
2022-08-16T16:39:59.670Z,18.50
2022-08-16T16:42:31.489Z,18.20
2022-08-16T16:45:08.041Z,17.87
2022-08-16T16:47:48.350Z,27.37
2022-08-16T16:50:18.532Z,17.13
2022-08-16T16:52:48.200Z,17.03
2022-08-16T16:55:28.900Z,17.60
2022-08-16T16:58:28.944Z,17.70
2022-08-16T17:01:14.792Z,17.93
2022-08-16T17:03:53.781Z,18.10
2022-08-16T17:06:37.954Z,18.40
2022-08-16T17:09:11.877Z,18.50
2022-08-16T17:11:44.377Z,18.23
2022-08-16T17:14:31.873Z,17.83
2022-08-16T17:17:08.336Z,18.10
2022-08-16T17:19:51.399Z,18.33
2022-08-16T17:22:32.581Z,19.43
2022-08-16T17:25:12.984Z,18.03
2022-08-16T17:27:43.245Z,17.70
2022-08-16T17:30:21.609Z,17.90
2022-08-16T17:33:00.795Z,19.00
2022-08-16T17:38:44.178Z,20.57
2022-08-16T17:39:27.208Z,17.90
2022-08-16T17:41:15.491Z,18.70
2022-08-16T17:43:49.237Z,18.97
2022-08-16T17:46:45.912Z,18.57
2022-08-16T17:49:51.506Z,18.40
2022-08-16T17:52:34.289Z,18.80
2022-08-16T17:55:37.474Z,18.77
2022-08-16T17:58:23.096Z,19.03
2022-08-16T18:00:56.311Z,19.40
2022-08-16T18:04:02.740Z,19.80
2022-08-16T18:06:24.361Z,20.07
2022-08-16T18:09:01.642Z,19.30
2022-08-16T18:11:34.092Z,19.33
2022-08-16T18:14:07.746Z,18.80
2022-08-16T18:16:40.458Z,19.57
2022-08-16T18:19:13.914Z,19.30
2022-08-16T18:22:07.417Z,20.80
2022-08-16T18:24:35.927Z,19.57
2022-08-16T18:27:24.820Z,20.83
2022-08-16T18:29:57.753Z,20.23
2022-08-16T18:32:29.868Z,20.77
2022-08-16T18:35:00.439Z,19.77
2022-08-16T18:37:29.934Z,20.37
2022-08-16T18:40:03.488Z,19.53
2022-08-16T18:42:34.065Z,20.47
2022-08-16T18:45:04.946Z,20.33
2022-08-16T18:47:36.096Z,19.73
2022-08-16T18:50:07.501Z,20.27
2022-08-16T18:52:35.901Z,21.07
2022-08-16T18:55:14.013Z,20.43
2022-08-16T18:57:43.636Z,20.43
2022-08-16T19:00:14.617Z,20.60
2022-08-16T19:02:56.930Z,19.77
2022-08-16T19:05:36.363Z,21.13
2022-08-16T19:08:05.306Z,19.97
2022-08-16T19:10:37.349Z,20.00
2022-08-16T19:13:14.690Z,21.20
2022-08-16T19:15:45.005Z,20.43
2022-08-16T19:18:15.429Z,20.13
2022-08-16T19:20:46.876Z,19.60
2022-08-16T19:23:19.592Z,20.20
2022-08-16T19:25:53.134Z,21.87
2022-08-16T19:28:49.620Z,19.87
2022-08-16T19:35:08.099Z,21.20
2022-08-16T19:37:46.602Z,21.15
2022-08-16T19:40:37.067Z,21.00
2022-08-16T19:43:15.911Z,21.87
2022-08-16T19:45:53.611Z,19.80
2022-08-16T19:48:23.313Z,19.50
2022-08-16T19:50:55.463Z,20.00
2022-08-16T19:53:27.780Z,20.50
2022-08-16T19:56:03.501Z,19.83
2022-08-16T19:58:34.149Z,19.60
2022-08-16T20:01:08.626Z,19.43
2022-08-16T20:03:44.561Z,21.13
2022-08-16T20:06:35.837Z,19.90
2022-08-16T20:09:07.474Z,19.07
2022-08-16T20:11:38.209Z,19.07
2022-08-16T20:14:06.793Z,21.53
2022-08-16T20:16:47.156Z,19.63
2022-08-16T20:19:25.151Z,21.73
2022-08-16T20:22:01.767Z,21.03
2022-08-16T20:24:35.671Z,20.47
2022-08-16T20:27:09.746Z,20.67
2022-08-16T20:29:43.986Z,20.77
2022-08-16T20:32:18.994Z,19.80
2022-08-16T20:35:11.370Z,21.20
2022-08-16T20:37:48.117Z,21.07
2022-08-16T20:40:33.994Z,21.57
2022-08-16T20:43:14.891Z,22.17
2022-08-16T20:45:46.923Z,20.40
2022-08-16T20:48:19.567Z,21.30
2022-08-16T20:50:55.770Z,21.73
2022-08-16T20:53:33.502Z,21.40
2022-08-16T20:56:13.919Z,21.53
2022-08-16T20:58:42.351Z,21.43
2022-08-16T21:01:16.940Z,20.87
2022-08-16T21:03:46.356Z,22.70
2022-08-16T21:06:21.755Z,23.10
2022-08-16T21:08:54.044Z,24.20
2022-08-16T21:11:40.254Z,22.10
2022-08-16T21:14:12.656Z,20.60
2022-08-16T21:16:51.064Z,21.87
2022-08-16T21:19:32.945Z,21.10
2022-08-16T21:22:29.056Z,21.50
2022-08-16T21:25:02.378Z,23.17
2022-08-16T21:27:39.508Z,22.27
2022-08-16T21:30:32.330Z,22.63
2022-08-16T21:33:17.699Z,22.13
2022-08-16T21:35:48.622Z,21.33
2022-08-16T21:38:28.696Z,21.43
2022-08-16T21:41:03.164Z,21.17
2022-08-16T21:43:33.730Z,24.27
2022-08-16T21:46:10.253Z,21.40
2022-08-16T21:48:47.067Z,24.33
2022-08-16T21:51:19.894Z,23.77
2022-08-16T21:53:55.504Z,22.60
2022-08-16T21:56:28.311Z,22.00
2022-08-16T21:58:56.875Z,22.80
2022-08-16T22:01:33.453Z,21.90
2022-08-16T22:04:37.990Z,23.33
2022-08-16T22:06:55.300Z,22.50
2022-08-16T22:09:24.616Z,21.23
2022-08-16T22:11:55.758Z,22.70
2022-08-16T22:14:31.499Z,20.67
2022-08-16T22:17:23.927Z,22.17
2022-08-16T22:19:53.921Z,22.67
2022-08-16T22:22:23.388Z,21.83
2022-08-16T22:25:22.658Z,22.30
2022-08-16T22:28:07.241Z,23.10
2022-08-16T22:30:42.824Z,21.93
2022-08-16T22:33:28.757Z,23.60
2022-08-16T22:36:01.078Z,22.90
2022-08-16T22:38:53.609Z,22.80
2022-08-16T22:41:42.230Z,23.50
2022-08-16T22:44:15.102Z,23.97
2022-08-16T22:46:53.561Z,25.17
2022-08-16T22:49:33.901Z,23.60
2022-08-16T22:52:06.692Z,24.30
2022-08-16T22:54:47.793Z,23.87
2022-08-16T22:57:18.685Z,23.27
2022-08-16T22:59:55.378Z,22.83
2022-08-16T23:02:25.919Z,22.10
2022-08-16T23:04:57.510Z,22.20
2022-08-16T23:07:51.974Z,23.53
2022-08-16T23:10:25.048Z,24.47
2022-08-16T23:12:54.962Z,22.97
2022-08-16T23:15:39.506Z,22.27
2022-08-16T23:18:08.502Z,22.60
2022-08-16T23:20:44.348Z,23.70
2022-08-16T23:23:21.080Z,24.20
2022-08-16T23:26:00.294Z,24.37
2022-08-16T23:28:33.601Z,24.47
2022-08-16T23:31:16.443Z,22.67
2022-08-16T23:33:52.694Z,24.20
2022-08-16T23:36:23.160Z,24.00
2022-08-16T23:39:00.938Z,23.20
2022-08-16T23:41:32.340Z,27.90
2022-08-16T23:44:01.921Z,22.20
2022-08-16T23:46:52.736Z,25.30
2022-08-16T23:49:56.029Z,24.40
2022-08-16T23:52:11.570Z,25.03
2022-08-16T23:54:45.862Z,22.93
2022-08-16T23:57:15.257Z,23.87
2022-08-16T23:59:53.528Z,23.40
